createdAt,value
2022-09-27T00:01:36.934Z,98943.16
2022-09-27T00:04:04.904Z,98944.03
2022-09-27T00:06:34.928Z,98944.91
2022-09-27T00:09:05.398Z,98954.53
2022-09-27T00:11:40.129Z,98967.75
2022-09-27T00:14:09.694Z,98955.44
2022-09-27T00:16:40.095Z,98972.97
2022-09-27T00:19:17.137Z,98968.59
2022-09-27T00:21:46.646Z,98972.09
2022-09-27T00:24:17.945Z,98970.31
2022-09-27T00:26:47.221Z,98969.41
2022-09-27T00:29:17.231Z,98969.47
2022-09-27T00:31:45.889Z,98965.94
2022-09-27T00:34:22.253Z,98957.13
2022-09-27T00:36:51.201Z,98956.25
2022-09-27T00:39:19.638Z,98958.91
2022-09-27T00:41:47.882Z,98959.78
2022-09-27T00:44:28.584Z,98951.03
2022-09-27T00:47:09.872Z,98938.69
2022-09-27T00:49:51.758Z,98950.16
2022-09-27T00:52:48.851Z,98944.88
2022-09-27T00:55:21.229Z,98938.72
2022-09-27T00:57:50.505Z,98952.78
2022-09-27T01:00:18.639Z,98936.09
2022-09-27T01:02:52.068Z,98932.56
2022-09-27T01:05:24.086Z,98939.59
2022-09-27T01:07:51.994Z,98934.31
2022-09-27T01:10:20.342Z,98940.50
2022-09-27T01:13:06.626Z,98923.75
2022-09-27T01:16:04.813Z,98917.59
2022-09-27T01:19:10.001Z,98911.41
2022-09-27T01:22:13.211Z,98903.47
2022-09-27T01:25:30.302Z,98885.81
2022-09-27T01:28:16.177Z,98859.38
2022-09-27T01:31:05.786Z,98846.13
2022-09-27T01:33:49.488Z,98833.78
2022-09-27T01:36:26.301Z,98824.09
2022-09-27T01:39:09.060Z,98808.22
2022-09-27T01:42:22.592Z,98801.22
2022-09-27T01:45:09.584Z,98798.56
2022-09-27T01:48:08.069Z,98795.00
2022-09-27T01:51:19.121Z,98789.75
2022-09-27T01:53:52.650Z,98794.09
2022-09-27T01:56:48.491Z,98788.81
2022-09-27T01:59:34.531Z,98791.47
2022-09-27T02:02:18.111Z,98784.34
2022-09-27T02:05:17.924Z,98787.88
2022-09-27T02:07:52.225Z,98792.25
2022-09-27T02:10:25.274Z,98779.06
2022-09-27T02:13:15.030Z,98787.78
2022-09-27T02:16:25.371Z,98783.44
2022-09-27T02:19:11.126Z,98785.06
2022-09-27T02:22:06.614Z,98781.53
2022-09-27T02:25:08.045Z,98792.09
2022-09-27T02:27:46.391Z,98794.75
2022-09-27T02:30:16.062Z,98799.16
2022-09-27T02:32:47.600Z,98796.53
2022-09-27T02:35:21.079Z,98797.38
2022-09-27T02:37:49.706Z,98800.91
2022-09-27T02:40:18.581Z,98807.94
2022-09-27T02:42:46.978Z,98809.72
2022-09-27T02:45:18.123Z,98812.41
2022-09-27T02:48:41.228Z,98824.69
2022-09-27T02:51:48.030Z,98832.59
2022-09-27T02:54:29.793Z,98837.03
2022-09-27T02:57:48.108Z,98838.84
2022-09-27T03:01:06.895Z,98837.97
2022-09-27T03:04:42.652Z,98852.19
2022-09-27T03:07:11.194Z,98855.72
2022-09-27T03:09:53.255Z,98875.13
2022-09-27T03:12:27.891Z,98883.00
2022-09-27T03:15:00.327Z,98885.63
2022-09-27T03:18:05.757Z,98886.50
2022-09-27T03:20:54.489Z,98884.69
2022-09-27T03:23:24.668Z,98886.41
2022-09-27T03:25:52.592Z,98888.19
2022-09-27T03:28:20.901Z,98885.63
2022-09-27T03:30:49.415Z,98883.78
2022-09-27T03:33:37.166Z,98883.81
2022-09-27T03:36:10.473Z,98871.47
2022-09-27T03:38:47.975Z,98879.47
2022-09-27T03:41:26.206Z,98883.72
2022-09-27T03:43:57.899Z,98878.50
2022-09-27T03:46:27.073Z,98881.09
2022-09-27T03:48:55.217Z,98881.16
2022-09-27T03:51:23.398Z,98883.88
2022-09-27T03:53:51.317Z,98883.88
2022-09-27T03:56:20.438Z,98886.50
2022-09-27T03:58:48.731Z,98885.63
2022-09-27T04:01:18.995Z,98882.13
2022-09-27T04:03:50.033Z,98883.91
2022-09-27T04:06:44.245Z,98884.88
2022-09-27T04:09:26.324Z,98891.00
2022-09-27T04:12:04.426Z,98894.56
2022-09-27T04:14:33.734Z,98891.03
2022-09-27T04:17:37.206Z,98900.75
2022-09-27T04:20:31.872Z,98893.69
2022-09-27T04:23:01.848Z,98900.75
2022-09-27T04:25:29.936Z,98909.59
2022-09-27T04:28:02.578Z,98906.06
2022-09-27T04:30:30.894Z,98894.63
2022-09-27T04:33:27.696Z,98913.16
2022-09-27T04:36:13.906Z,98907.88
2022-09-27T04:39:00.289Z,98908.75
2022-09-27T04:41:29.401Z,98912.28
2022-09-27T04:44:01.231Z,98908.75
2022-09-27T04:46:31.706Z,98909.66
2022-09-27T04:49:01.202Z,98906.19
2022-09-27T04:51:30.793Z,98905.31
2022-09-27T04:53:58.875Z,98903.50
2022-09-27T04:56:30.532Z,98900.88
2022-09-27T04:58:58.798Z,98904.44
2022-09-27T05:01:26.674Z,98902.69
2022-09-27T05:04:00.842Z,98904.56
2022-09-27T05:06:30.580Z,98915.94
2022-09-27T05:09:05.937Z,98925.66
2022-09-27T05:11:42.731Z,98935.34
2022-09-27T05:14:29.137Z,98932.75
2022-09-27T05:17:10.075Z,98946.75
2022-09-27T05:19:56.647Z,98954.72
2022-09-27T05:22:40.740Z,98956.47
2022-09-27T05:25:09.549Z,98959.13
2022-09-27T05:27:37.461Z,98965.28
2022-09-27T05:30:08.305Z,98965.28
2022-09-27T05:32:56.448Z,98975.91
2022-09-27T05:35:27.581Z,98982.03
2022-09-27T05:38:00.524Z,98982.91
2022-09-27T05:40:47.095Z,98994.34
2022-09-27T05:43:16.142Z,98985.53
2022-09-27T05:45:45.013Z,99001.38
2022-09-27T05:48:14.795Z,98999.59
2022-09-27T05:51:05.047Z,99000.41
2022-09-27T05:53:34.388Z,99005.72
2022-09-27T05:56:05.706Z,99005.72
2022-09-27T05:59:04.104Z,99002.19
2022-09-27T06:01:48.346Z,99008.38
2022-09-27T06:04:39.279Z,99005.66
2022-09-27T06:07:32.309Z,98991.50
2022-09-27T06:10:01.686Z,98993.25
2022-09-27T06:12:29.538Z,98993.31
2022-09-27T06:14:57.397Z,98999.50
2022-09-27T06:17:35.353Z,99016.22
2022-09-27T06:20:10.341Z,99009.94
2022-09-27T06:22:38.754Z,99009.13
2022-09-27T06:25:08.128Z,99018.84
2022-09-27T06:27:44.068Z,99017.06
2022-09-27T06:30:21.426Z,99024.06
2022-09-27T06:33:02.123Z,99024.00
2022-09-27T06:35:45.477Z,99024.00
2022-09-27T06:38:16.874Z,99030.16
2022-09-27T06:40:51.629Z,99024.88
2022-09-27T06:43:42.821Z,99031.03
2022-09-27T06:46:30.594Z,99043.28
2022-09-27T06:49:16.950Z,99035.34
2022-09-27T06:51:45.557Z,99044.13
2022-09-27T06:54:13.391Z,99051.16
2022-09-27T06:56:41.354Z,99044.13
2022-09-27T06:59:27.656Z,99054.66
2022-09-27T07:02:14.209Z,99052.88
2022-09-27T07:05:18.229Z,99053.75
2022-09-27T07:08:02.873Z,99066.03
2022-09-27T07:10:36.706Z,99074.81
2022-09-27T07:13:08.341Z,99075.66
2022-09-27T07:15:38.545Z,99088.81
2022-09-27T07:18:09.957Z,99093.25
2022-09-27T07:20:38.487Z,99109.06
2022-09-27T07:23:09.319Z,99090.53
2022-09-27T07:25:38.233Z,99103.69
2022-09-27T07:28:09.721Z,99106.28
2022-09-27T07:30:38.484Z,99092.19
2022-09-27T07:33:07.125Z,99074.59
2022-09-27T07:35:40.054Z,99080.75
2022-09-27T07:38:10.121Z,99089.59
2022-09-27T07:40:38.097Z,99103.69
2022-09-27T07:43:06.635Z,99112.53
2022-09-27T07:45:36.736Z,99123.91
2022-09-27T07:48:30.229Z,99108.00
2022-09-27T07:51:17.846Z,99104.44
2022-09-27T07:54:04.179Z,99107.09
2022-09-27T07:56:55.546Z,99099.16
2022-09-27T07:59:24.785Z,99113.16
2022-09-27T08:01:54.205Z,99110.53
2022-09-27T08:04:22.725Z,99114.84
2022-09-27T08:06:50.683Z,99129.78
2022-09-27T08:09:19.040Z,99114.97
2022-09-27T08:11:47.431Z,99130.66
2022-09-27T08:14:15.798Z,99147.31
2022-09-27T08:16:46.572Z,99137.53
2022-09-27T08:19:15.196Z,99150.53
2022-09-27T08:21:43.823Z,99158.25
2022-09-27T08:24:24.167Z,99157.22
2022-09-27T08:27:12.026Z,99166.59
2022-09-27T08:29:48.866Z,99177.75
2022-09-27T08:32:22.788Z,99147.78
2022-09-27T08:34:51.986Z,99152.91
2022-09-27T08:37:23.509Z,99165.78
2022-09-27T08:39:52.993Z,99131.16
2022-09-27T08:42:54.202Z,99080.38
2022-09-27T08:45:42.361Z,99097.22
2022-09-27T08:48:12.791Z,99103.47
2022-09-27T08:50:44.803Z,99072.66
2022-09-27T08:53:14.769Z,99096.31
2022-09-27T08:55:56.209Z,99142.28
2022-09-27T08:58:33.966Z,99121.94
2022-09-27T09:01:10.814Z,99114.91
2022-09-27T09:03:58.013Z,99073.97
2022-09-27T09:06:47.003Z,99055.63
2022-09-27T09:09:42.224Z,99056.66
2022-09-27T09:12:47.717Z,99042.69
2022-09-27T09:16:22.818Z,99062.13
2022-09-27T09:19:03.420Z,99059.56
2022-09-27T09:22:24.918Z,99066.47
2022-09-27T09:25:22.919Z,99053.47
2022-09-27T09:28:30.868Z,99051.56
2022-09-27T09:31:21.290Z,99048.19
2022-09-27T09:33:59.630Z,99071.91
2022-09-27T09:36:44.004Z,99057.75
2022-09-27T09:39:18.601Z,99070.78
2022-09-27T09:42:19.857Z,99046.44
2022-09-27T09:45:41.743Z,99050.81
2022-09-27T09:48:30.000Z,99036.78
2022-09-27T09:51:01.705Z,99020.25
2022-09-27T09:53:46.714Z,99018.78
2022-09-27T09:56:31.164Z,99013.81
2022-09-27T09:59:15.665Z,99049.06
2022-09-27T10:01:48.530Z,99057.19
2022-09-27T10:04:35.579Z,99038.16
2022-09-27T10:07:03.797Z,99059.22
2022-09-27T10:09:36.731Z,99068.06
2022-09-27T10:12:37.652Z,99086.50
2022-09-27T10:15:07.401Z,99048.94
2022-09-27T10:17:47.104Z,99047.03
2022-09-27T10:20:31.018Z,99039.97
2022-09-27T10:23:12.248Z,99067.03
2022-09-27T10:26:04.753Z,99044.91
2022-09-27T10:28:39.831Z,99049.25
2022-09-27T10:31:18.248Z,99073.56
2022-09-27T10:34:25.294Z,99055.84
2022-09-27T10:37:18.950Z,99096.81
2022-09-27T10:39:58.492Z,99071.03
2022-09-27T10:42:38.715Z,99070.81
2022-09-27T10:45:33.413Z,99102.66
2022-09-27T10:48:25.183Z,99108.34
2022-09-27T10:51:07.788Z,99086.03
2022-09-27T10:53:49.189Z,99064.91
2022-09-27T10:56:30.806Z,98996.09
2022-09-27T10:59:04.093Z,98977.88
2022-09-27T11:02:00.214Z,99034.50
2022-09-27T11:04:39.139Z,99001.41
2022-09-27T11:07:20.150Z,98988.00
2022-09-27T11:10:05.595Z,98924.28
2022-09-27T11:12:36.742Z,98915.31
2022-09-27T11:15:16.392Z,98949.88
2022-09-27T11:18:11.002Z,98946.09
2022-09-27T11:20:56.253Z,98872.41
2022-09-27T11:24:00.827Z,98935.25
2022-09-27T11:26:56.543Z,99022.22
2022-09-27T11:29:46.629Z,99021.16
2022-09-27T11:33:25.244Z,99017.13
2022-09-27T11:36:30.695Z,99072.44
2022-09-27T11:39:30.225Z,99024.88
2022-09-27T11:42:03.698Z,99067.91
2022-09-27T11:45:27.748Z,98934.31
2022-09-27T11:48:27.879Z,98956.72
2022-09-27T11:51:43.685Z,98971.69
2022-09-27T11:54:31.230Z,98952.72
2022-09-27T11:57:26.555Z,98962.97
2022-09-27T12:00:13.207Z,98933.03
2022-09-27T12:03:22.282Z,98857.75
2022-09-27T12:06:34.425Z,98895.09
2022-09-27T12:09:19.676Z,98891.38
2022-09-27T12:12:05.189Z,98857.38
2022-09-27T12:14:40.631Z,98784.19
2022-09-27T12:17:21.880Z,98783.28
2022-09-27T12:19:58.950Z,98799.59
2022-09-27T12:22:59.164Z,98742.13
2022-09-27T12:25:54.721Z,98766.00
2022-09-27T12:28:51.233Z,98739.53
2022-09-27T12:31:30.440Z,98712.78
2022-09-27T12:34:25.881Z,98723.66
2022-09-27T12:37:13.312Z,98709.53
2022-09-27T12:40:01.487Z,98704.00
2022-09-27T12:43:09.141Z,98804.53
2022-09-27T12:46:07.459Z,98662.78
2022-09-27T12:48:57.901Z,98654.00
2022-09-27T12:51:37.041Z,98643.25
2022-09-27T12:54:38.685Z,98760.13
2022-09-27T12:57:21.893Z,98690.97
2022-09-27T13:00:12.007Z,98592.09
2022-09-27T13:03:14.672Z,98583.47
2022-09-27T13:06:12.011Z,98627.72
2022-09-27T13:09:29.289Z,98658.78
2022-09-27T13:12:19.187Z,98671.81
2022-09-27T13:15:13.588Z,98608.97
2022-09-27T13:17:42.202Z,98585.94
2022-09-27T13:20:35.076Z,98659.13
2022-09-27T13:23:19.991Z,98645.81
2022-09-27T13:26:00.206Z,98613.50
2022-09-27T13:28:58.534Z,98642.13
2022-09-27T13:31:58.285Z,98587.88
2022-09-27T13:34:46.479Z,98592.84
2022-09-27T13:37:48.293Z,98624.47
2022-09-27T13:40:30.870Z,98605.34
2022-09-27T13:43:34.459Z,98635.66
2022-09-27T13:46:16.001Z,98612.31
2022-09-27T13:49:15.140Z,98692.97
2022-09-27T13:52:33.890Z,98742.91
2022-09-27T13:55:43.781Z,98599.84
2022-09-27T13:58:35.228Z,98649.41
2022-09-27T14:01:40.243Z,98623.47
2022-09-27T14:04:49.764Z,98588.84
2022-09-27T14:07:28.765Z,98480.28
2022-09-27T14:10:01.754Z,98490.22
2022-09-27T14:12:40.067Z,98464.66
2022-09-27T14:15:23.378Z,98487.91
2022-09-27T14:17:53.576Z,98516.78
2022-09-27T14:20:40.468Z,98508.31
2022-09-27T14:23:26.343Z,98532.44
2022-09-27T14:25:56.714Z,98478.97
2022-09-27T14:28:29.234Z,98528.25
2022-09-27T14:31:23.630Z,98545.88
2022-09-27T14:34:12.957Z,98585.66
2022-09-27T14:37:04.566Z,98580.94
2022-09-27T14:39:39.434Z,98600.03
2022-09-27T14:42:25.251Z,98525.28
2022-09-27T14:45:04.685Z,98521.00
2022-09-27T14:47:33.268Z,98568.72
2022-09-27T14:50:36.056Z,98556.91
2022-09-27T14:53:05.404Z,98594.47
2022-09-27T14:55:35.000Z,98535.75
2022-09-27T14:58:04.746Z,98553.38
2022-09-27T15:00:36.464Z,98521.53
2022-09-27T15:03:09.318Z,98565.81
2022-09-27T15:05:43.314Z,98563.16
2022-09-27T15:08:15.281Z,98572.47
2022-09-27T15:10:44.345Z,98601.16
2022-09-27T15:13:17.193Z,98458.59
2022-09-27T15:15:46.466Z,98485.59
2022-09-27T15:18:42.506Z,98534.03
2022-09-27T15:21:15.424Z,98519.09
2022-09-27T15:23:45.539Z,98578.44
2022-09-27T15:26:26.746Z,98614.56
2022-09-27T15:28:54.692Z,98600.84
2022-09-27T15:31:30.915Z,98554.88
2022-09-27T15:33:59.424Z,98536.97
2022-09-27T15:36:51.345Z,98517.81
2022-09-27T15:39:39.537Z,98551.94
2022-09-27T15:42:18.398Z,98564.75
2022-09-27T15:44:52.930Z,98524.53
2022-09-27T15:47:32.625Z,98577.41
2022-09-27T15:50:26.281Z,98600.41
2022-09-27T15:52:57.266Z,98598.78
2022-09-27T15:55:30.060Z,98570.75
2022-09-27T15:58:08.405Z,98579.16
2022-09-27T16:00:51.075Z,98526.88
2022-09-27T16:03:19.267Z,98551.44
2022-09-27T16:05:47.138Z,98543.41
2022-09-27T16:08:15.571Z,98482.78
2022-09-27T16:10:49.652Z,98479.94
2022-09-27T16:13:20.649Z,98530.00
2022-09-27T16:15:49.503Z,98501.47
2022-09-27T16:18:17.939Z,98462.13
2022-09-27T16:20:46.099Z,98489.09
2022-09-27T16:23:14.528Z,98489.41
2022-09-27T16:25:42.686Z,98508.28
2022-09-27T16:28:14.002Z,98514.94
2022-09-27T16:30:42.298Z,98523.63
2022-09-27T16:33:10.703Z,98553.53
2022-09-27T16:35:41.427Z,98554.63
2022-09-27T16:38:09.772Z,98557.66
2022-09-27T16:40:38.540Z,98544.69
2022-09-27T16:43:07.459Z,98544.94
2022-09-27T16:45:39.253Z,98574.06
2022-09-27T16:48:10.436Z,98576.91
2022-09-27T16:50:57.018Z,98580.66
2022-09-27T16:53:24.782Z,98585.28
2022-09-27T16:55:59.077Z,98592.59
2022-09-27T16:58:29.365Z,98575.25
2022-09-27T17:01:00.153Z,98583.47
2022-09-27T17:03:28.765Z,98587.34
2022-09-27T17:06:02.333Z,98591.72
2022-09-27T17:08:31.115Z,98600.47
2022-09-27T17:11:00.281Z,98612.00
2022-09-27T17:13:31.015Z,98620.03
2022-09-27T17:15:59.304Z,98613.34
2022-09-27T17:18:27.609Z,98618.66
2022-09-27T17:21:04.634Z,98627.50
2022-09-27T17:23:34.171Z,98614.66
2022-09-27T17:26:08.601Z,98615.56
2022-09-27T17:28:37.157Z,98632.47
2022-09-27T17:31:12.308Z,98635.22
2022-09-27T17:33:55.525Z,98643.16
2022-09-27T17:36:30.131Z,98631.13
2022-09-27T17:39:02.667Z,98646.97
2022-09-27T17:41:31.301Z,98643.56
2022-09-27T17:44:01.677Z,98652.41
2022-09-27T17:46:33.682Z,98658.72
2022-09-27T17:49:28.708Z,98659.53
2022-09-27T17:51:57.806Z,98665.81
2022-09-27T17:54:30.672Z,98675.41
2022-09-27T17:56:59.087Z,98675.47
2022-09-27T17:59:27.222Z,98677.34
2022-09-27T18:01:55.638Z,98679.28
2022-09-27T18:04:24.035Z,98682.09
2022-09-27T18:06:52.506Z,98690.69
2022-09-27T18:09:21.548Z,98687.47
2022-09-27T18:11:52.721Z,98702.47
2022-09-27T18:14:22.360Z,98694.78
2022-09-27T18:16:50.841Z,98709.81
2022-09-27T18:19:18.794Z,98713.47
2022-09-27T18:21:46.962Z,98741.53
2022-09-27T18:24:16.476Z,98735.50
2022-09-27T18:26:49.048Z,98762.00
2022-09-27T18:30:06.917Z,98769.16
2022-09-27T18:32:34.774Z,98781.47
2022-09-27T18:35:02.868Z,98784.06
2022-09-27T18:37:30.952Z,98796.28
2022-09-27T18:40:01.158Z,98799.75
2022-09-27T18:42:29.223Z,98806.78
2022-09-27T18:44:57.126Z,98805.91
2022-09-27T18:47:25.509Z,98813.81
2022-09-27T18:49:54.011Z,98818.13
2022-09-27T18:52:21.914Z,98814.66
2022-09-27T18:54:50.169Z,98831.31
2022-09-27T18:57:19.166Z,98839.16
2022-09-27T18:59:49.500Z,98829.56
2022-09-27T19:02:17.881Z,98835.66
2022-09-27T19:04:49.309Z,98839.09
2022-09-27T19:07:19.279Z,98836.41
2022-09-27T19:09:52.987Z,98827.69
2022-09-27T19:12:21.084Z,98826.84
2022-09-27T19:14:49.179Z,98832.09
2022-09-27T19:17:17.310Z,98839.97
2022-09-27T19:19:46.703Z,98835.56
2022-09-27T19:22:16.961Z,98826.75
2022-09-27T19:24:45.305Z,98810.91
2022-09-27T19:27:13.651Z,98806.50
2022-09-27T19:29:41.493Z,98784.53
2022-09-27T19:32:10.017Z,98789.84
2022-09-27T19:34:38.371Z,98789.88
2022-09-27T19:37:06.152Z,98801.28
2022-09-27T19:39:34.520Z,98792.47
2022-09-27T19:42:02.690Z,98791.59
2022-09-27T19:44:30.399Z,98796.06
2022-09-27T19:46:58.493Z,98791.66
2022-09-27T19:49:26.907Z,98793.41
2022-09-27T19:51:54.947Z,98782.84
2022-09-27T19:54:22.996Z,98784.66
2022-09-27T19:56:50.787Z,98780.28
2022-09-27T19:59:18.739Z,98773.25
2022-09-27T20:01:46.744Z,98778.56
2022-09-27T20:04:14.785Z,98779.47
2022-09-27T20:06:42.825Z,98788.28
2022-09-27T20:09:11.060Z,98782.19
2022-09-27T20:11:39.215Z,98790.97
2022-09-27T20:14:07.029Z,98794.50
2022-09-27T20:16:39.150Z,98794.47
2022-09-27T20:19:09.292Z,98796.34
2022-09-27T20:21:37.314Z,98790.25
2022-09-27T20:24:05.726Z,98800.81
2022-09-27T20:26:34.807Z,98792.94
2022-09-27T20:29:06.630Z,98800.84
2022-09-27T20:31:39.701Z,98802.63
2022-09-27T20:34:14.554Z,98799.16
2022-09-27T20:36:45.201Z,98807.97
2022-09-27T20:39:15.465Z,98812.38
2022-09-27T20:41:46.464Z,98809.75
2022-09-27T20:44:18.218Z,98810.59
2022-09-27T20:46:47.115Z,98802.72
2022-09-27T20:49:18.738Z,98813.31
2022-09-27T20:51:51.530Z,98827.31
2022-09-27T20:54:20.023Z,98839.63
2022-09-27T20:56:48.908Z,98832.66
2022-09-27T20:59:22.622Z,98837.03
2022-09-27T21:01:52.464Z,98832.69
2022-09-27T21:04:21.659Z,98822.97
2022-09-27T21:06:49.902Z,98823.00
2022-09-27T21:09:21.038Z,98823.88
2022-09-27T21:11:51.914Z,98824.78
2022-09-27T21:14:20.845Z,98836.16
2022-09-27T21:16:48.601Z,98845.81
2022-09-27T21:19:16.746Z,98844.88
2022-09-27T21:21:44.954Z,98843.19
2022-09-27T21:24:13.118Z,98840.56
2022-09-27T21:26:40.925Z,98837.88
2022-09-27T21:29:11.672Z,98843.94
2022-09-27T21:31:39.829Z,98839.44
2022-09-27T21:34:07.761Z,98836.78
2022-09-27T21:36:38.781Z,98827.13
2022-09-27T21:39:08.952Z,98821.97
2022-09-27T21:41:39.079Z,98820.22
2022-09-27T21:44:08.041Z,98814.03
2022-09-27T21:46:40.866Z,98817.56
2022-09-27T21:49:09.771Z,98812.38
2022-09-27T21:51:40.361Z,98815.03
2022-09-27T21:54:13.417Z,98818.56
2022-09-27T21:56:43.025Z,98821.16
2022-09-27T21:59:15.218Z,98823.78
2022-09-27T22:01:45.591Z,98822.88
2022-09-27T22:04:38.746Z,98810.59
2022-09-27T22:07:17.081Z,98793.91
2022-09-27T22:09:45.299Z,98800.94
2022-09-27T22:12:13.111Z,98808.84
2022-09-27T22:14:41.124Z,98792.13
2022-09-27T22:17:09.374Z,98793.00
2022-09-27T22:19:37.591Z,98780.72
2022-09-27T22:22:05.741Z,98785.16
2022-09-27T22:24:34.070Z,98781.59
2022-09-27T22:27:02.252Z,98781.56
2022-09-27T22:29:31.456Z,98776.28
2022-09-27T22:31:59.634Z,98771.91
2022-09-27T22:34:31.666Z,98771.91
2022-09-27T22:37:01.094Z,98759.63
2022-09-27T22:39:29.545Z,98751.72
2022-09-27T22:41:57.565Z,98759.59
2022-09-27T22:44:25.460Z,98756.94
2022-09-27T22:46:53.896Z,98756.06
2022-09-27T22:49:21.849Z,98760.47
2022-09-27T22:51:50.597Z,98770.06
2022-09-27T22:54:18.933Z,98767.41
2022-09-27T22:56:47.210Z,98761.25
2022-09-27T22:59:15.504Z,98764.75
2022-09-27T23:01:43.850Z,98761.19
2022-09-27T23:04:12.056Z,98769.94
2022-09-27T23:06:40.193Z,98765.56
2022-09-27T23:09:10.063Z,98763.78
2022-09-27T23:11:38.258Z,98773.50
2022-09-27T23:14:07.630Z,98767.38
2022-09-27T23:16:36.755Z,98763.91
2022-09-27T23:19:05.205Z,98764.78
2022-09-27T23:21:33.062Z,98768.34
2022-09-27T23:24:01.875Z,98766.59
2022-09-27T23:26:29.813Z,98774.53
2022-09-27T23:29:00.953Z,98779.78
2022-09-27T23:31:32.183Z,98781.56
2022-09-27T23:34:04.457Z,98782.41
2022-09-27T23:36:32.338Z,98792.97
2022-09-27T23:39:01.497Z,98790.34
2022-09-27T23:41:29.885Z,98788.56
2022-09-27T23:43:57.858Z,98799.06
2022-09-27T23:46:26.793Z,98794.69
2022-09-27T23:48:54.917Z,98791.13
2022-09-27T23:51:22.764Z,98799.94
2022-09-27T23:53:50.758Z,98792.88
2022-09-27T23:56:18.785Z,98799.91
2022-09-27T23:58:47.027Z,98804.28
